createdAt,value
2024-03-06T00:00:26.018Z,9.30
2024-03-06T00:03:20.961Z,9.40
2024-03-06T00:05:55.400Z,9.40
2024-03-06T00:08:26.059Z,9.40
2024-03-06T00:10:57.793Z,9.40
2024-03-06T00:13:26.386Z,9.44
2024-03-06T00:16:19.911Z,9.48
2024-03-06T00:19:29.755Z,9.50
2024-03-06T00:21:58.800Z,9.50
2024-03-06T00:24:36.418Z,9.50
2024-03-06T00:27:06.994Z,9.54
2024-03-06T00:29:48.485Z,9.60
2024-03-06T00:32:19.496Z,9.60
2024-03-06T00:34:54.150Z,9.60
2024-03-06T00:37:24.760Z,9.60
2024-03-06T00:40:02.177Z,9.60
2024-03-06T00:42:45.690Z,9.60
2024-03-06T00:45:19.931Z,9.60
2024-03-06T00:47:51.985Z,9.60
2024-03-06T00:50:22.533Z,9.60
2024-03-06T00:52:54.395Z,9.60
2024-03-06T00:55:29.272Z,9.60
2024-03-06T00:58:01.296Z,9.60
2024-03-06T01:00:35.021Z,9.60
2024-03-06T01:03:03.565Z,9.60
2024-03-06T01:05:31.906Z,9.60
2024-03-06T01:08:22.883Z,9.66
2024-03-06T01:10:51.900Z,9.64
2024-03-06T01:13:24.320Z,9.70
2024-03-06T01:15:55.465Z,9.70
2024-03-06T01:18:46.884Z,9.70
2024-03-06T01:21:17.577Z,9.70
2024-03-06T01:23:57.406Z,9.70
2024-03-06T01:26:25.904Z,9.70
2024-03-06T01:29:25.877Z,9.70
2024-03-06T01:32:02.506Z,9.72
2024-03-06T01:34:38.791Z,9.80
2024-03-06T01:37:07.315Z,9.80
2024-03-06T01:40:05.713Z,9.80
2024-03-06T01:42:38.704Z,9.80
2024-03-06T01:45:18.953Z,9.80
2024-03-06T01:47:57.892Z,9.80
2024-03-06T01:50:49.383Z,9.80
2024-03-06T01:53:21.589Z,9.80
2024-03-06T01:56:13.192Z,9.80
2024-03-06T01:58:42.976Z,9.78
2024-03-06T02:01:17.343Z,9.70
2024-03-06T02:03:53.472Z,9.70
2024-03-06T02:06:22.520Z,9.70
2024-03-06T02:08:53.846Z,9.64
2024-03-06T02:11:25.366Z,9.60
2024-03-06T02:14:15.617Z,9.60
2024-03-06T02:16:44.296Z,9.60
2024-03-06T02:19:21.244Z,9.56
2024-03-06T02:22:02.240Z,9.50
2024-03-06T02:25:33.534Z,9.50
2024-03-06T02:28:02.050Z,9.50
2024-03-06T02:30:38.332Z,9.50
2024-03-06T02:33:10.908Z,9.54
2024-03-06T02:35:52.895Z,9.60
2024-03-06T02:38:42.135Z,9.54
2024-03-06T02:41:11.733Z,9.54
2024-03-06T02:43:42.970Z,9.50
2024-03-06T02:46:14.801Z,9.50
2024-03-06T02:48:50.455Z,9.50
2024-03-06T02:51:45.136Z,9.50
2024-03-06T02:54:22.661Z,9.50
2024-03-06T02:56:55.148Z,9.50
2024-03-06T02:59:33.886Z,9.50
2024-03-06T03:02:05.405Z,9.52
2024-03-06T03:04:33.498Z,9.50
2024-03-06T03:07:24.408Z,9.50
2024-03-06T03:09:53.001Z,9.50
2024-03-06T03:12:31.961Z,9.50
2024-03-06T03:15:00.303Z,9.50
2024-03-06T03:17:33.623Z,9.46
2024-03-06T03:20:25.583Z,9.40
2024-03-06T03:22:53.939Z,9.40
2024-03-06T03:25:31.061Z,9.40
2024-03-06T03:28:25.231Z,9.40
2024-03-06T03:31:14.109Z,9.40
2024-03-06T03:33:49.886Z,9.40
2024-03-06T03:36:18.629Z,9.36
2024-03-06T03:38:49.769Z,9.30
2024-03-06T03:41:21.260Z,9.30
2024-03-06T03:43:50.467Z,9.30
2024-03-06T03:46:43.482Z,9.30
2024-03-06T03:49:23.325Z,9.20
2024-03-06T03:51:51.682Z,9.20
2024-03-06T03:54:23.097Z,9.20
2024-03-06T03:56:52.081Z,9.20
2024-03-06T03:59:20.547Z,9.20
2024-03-06T04:01:59.367Z,9.20
2024-03-06T04:04:30.883Z,9.10
2024-03-06T04:07:30.084Z,9.10
2024-03-06T04:10:06.634Z,9.10
2024-03-06T04:12:35.222Z,9.10
2024-03-06T04:15:07.181Z,9.00
2024-03-06T04:17:39.245Z,9.00
2024-03-06T04:20:09.189Z,9.00
2024-03-06T04:22:38.140Z,9.00
2024-03-06T04:25:24.835Z,8.98
2024-03-06T04:28:08.832Z,8.90
2024-03-06T04:30:37.351Z,8.90
2024-03-06T04:33:08.727Z,8.90
2024-03-06T04:35:37.819Z,8.88
2024-03-06T04:38:07.669Z,8.80
2024-03-06T04:40:36.239Z,8.80
2024-03-06T04:43:04.830Z,8.70
2024-03-06T04:45:33.313Z,8.70
2024-03-06T04:48:01.837Z,8.70
2024-03-06T04:50:30.505Z,8.64
2024-03-06T04:52:58.969Z,8.60
2024-03-06T04:55:28.072Z,8.60
2024-03-06T04:57:59.531Z,8.60
2024-03-06T05:00:29.754Z,8.60
2024-03-06T05:59:34.579Z,8.60
2024-03-06T06:02:05.238Z,8.60
2024-03-06T06:04:44.199Z,8.50
2024-03-06T06:07:19.747Z,8.50
2024-03-06T06:09:51.126Z,8.50
2024-03-06T06:12:20.058Z,8.50
2024-03-06T06:14:57.061Z,8.50
2024-03-06T06:17:26.512Z,8.52
2024-03-06T06:19:55.360Z,8.52
2024-03-06T06:22:23.933Z,8.52
2024-03-06T06:24:59.725Z,8.52
2024-03-06T06:27:29.305Z,8.56
2024-03-06T06:29:59.122Z,8.60
2024-03-06T06:32:29.931Z,8.60
2024-03-06T06:35:14.606Z,8.60
2024-03-06T06:37:56.900Z,8.68
2024-03-06T06:40:26.380Z,8.68
2024-03-06T06:43:37.596Z,8.70
2024-03-06T06:46:07.415Z,8.70
2024-03-06T06:48:58.439Z,8.70
2024-03-06T06:51:27.224Z,8.70
2024-03-06T06:54:22.836Z,8.70
2024-03-06T06:56:55.302Z,8.70
2024-03-06T06:59:26.586Z,8.74
2024-03-06T07:02:58.801Z,8.80
2024-03-06T07:05:47.712Z,8.80
2024-03-06T07:09:05.661Z,8.80
2024-03-06T07:12:00.676Z,8.80
2024-03-06T07:14:56.552Z,8.80
2024-03-06T07:17:28.448Z,8.90
2024-03-06T07:19:57.240Z,8.90
2024-03-06T07:22:26.555Z,8.90
2024-03-06T07:24:55.926Z,8.90
2024-03-06T07:27:28.587Z,8.90
2024-03-06T07:29:57.011Z,8.90
2024-03-06T07:32:26.613Z,8.90
2024-03-06T07:34:55.140Z,8.90
2024-03-06T07:37:23.488Z,8.90
2024-03-06T07:39:54.085Z,8.90
2024-03-06T07:42:22.833Z,8.84
2024-03-06T07:44:51.871Z,8.84
2024-03-06T07:48:21.095Z,8.90
2024-03-06T07:51:48.471Z,8.90
2024-03-06T07:54:48.259Z,8.94
2024-03-06T07:58:16.475Z,9.00
2024-03-06T08:01:22.518Z,9.00
2024-03-06T08:04:24.524Z,8.98
2024-03-06T08:07:06.207Z,9.00
2024-03-06T08:10:52.989Z,9.00
2024-03-06T08:14:31.205Z,9.00
2024-03-06T08:17:44.964Z,9.00
2024-03-06T08:21:13.345Z,9.00
2024-03-06T08:24:13.163Z,9.00
2024-03-06T08:27:23.983Z,9.10
2024-03-06T08:30:06.792Z,9.10
2024-03-06T08:33:24.415Z,9.20
2024-03-06T08:36:38.120Z,9.20
2024-03-06T08:39:35.867Z,9.20
2024-03-06T08:43:12.898Z,9.20
2024-03-06T08:46:33.467Z,9.20
2024-03-06T08:49:36.986Z,9.20
2024-03-06T08:52:17.542Z,9.22
2024-03-06T08:54:45.117Z,9.30
2024-03-06T08:57:12.755Z,9.26
2024-03-06T08:59:40.221Z,9.24
2024-03-06T09:02:20.654Z,9.28
2024-03-06T09:04:48.649Z,9.30
2024-03-06T09:07:42.117Z,9.32
2024-03-06T09:10:50.646Z,9.40
2024-03-06T09:14:21.371Z,9.50
2024-03-06T09:17:10.702Z,9.50
2024-03-06T09:20:00.428Z,9.50
2024-03-06T09:23:16.563Z,9.50
2024-03-06T09:25:55.481Z,9.50
2024-03-06T09:28:26.208Z,9.50
2024-03-06T09:30:53.680Z,9.50
2024-03-06T09:33:21.483Z,9.50
2024-03-06T09:35:49.200Z,9.60
2024-03-06T09:38:19.962Z,9.60
2024-03-06T09:40:48.185Z,9.70
2024-03-06T09:43:15.633Z,9.70
2024-03-06T09:45:44.082Z,9.80
2024-03-06T09:48:11.750Z,9.80
2024-03-06T09:50:42.625Z,9.80
2024-03-06T09:53:14.031Z,9.80
2024-03-06T09:55:46.364Z,9.80
2024-03-06T09:59:00.838Z,9.90
2024-03-06T10:02:31.635Z,9.90
2024-03-06T10:05:35.619Z,9.90
2024-03-06T10:09:02.945Z,9.98
2024-03-06T10:11:33.119Z,10.00
2024-03-06T10:14:03.082Z,10.10
2024-03-06T10:17:20.206Z,10.02
2024-03-06T10:20:36.508Z,10.00
2024-03-06T10:23:33.324Z,10.10
2024-03-06T10:26:10.096Z,10.10
2024-03-06T10:28:37.723Z,10.10
2024-03-06T10:31:09.823Z,10.10
2024-03-06T10:33:38.924Z,10.10
2024-03-06T10:36:06.667Z,10.00
2024-03-06T10:38:42.047Z,10.10
2024-03-06T10:41:15.650Z,10.00
2024-03-06T10:43:48.763Z,10.00
2024-03-06T10:46:21.309Z,10.10
2024-03-06T10:48:51.136Z,10.08
2024-03-06T10:51:22.358Z,10.00
2024-03-06T10:53:51.108Z,10.00
2024-03-06T10:56:20.826Z,10.00
2024-03-06T10:58:53.093Z,9.92
2024-03-06T11:01:21.026Z,10.00
2024-03-06T11:03:49.863Z,10.10
2024-03-06T11:06:17.531Z,10.10
2024-03-06T11:08:45.170Z,10.10
2024-03-06T11:11:26.066Z,10.10
2024-03-06T11:14:01.289Z,10.20
2024-03-06T11:16:35.001Z,10.20
2024-03-06T11:19:08.336Z,10.28
2024-03-06T11:21:36.509Z,10.30
2024-03-06T11:24:13.176Z,10.30
2024-03-06T11:26:44.633Z,10.30
2024-03-06T11:29:12.812Z,10.30
2024-03-06T11:32:18.292Z,10.40
2024-03-06T11:35:09.467Z,10.40
2024-03-06T11:38:25.959Z,10.50
2024-03-06T11:41:28.512Z,10.40
2024-03-06T11:44:29.382Z,10.40
2024-03-06T11:47:08.578Z,10.30
2024-03-06T11:50:19.072Z,10.30
2024-03-06T11:53:51.492Z,10.40
2024-03-06T11:56:28.583Z,10.40
2024-03-06T11:59:26.837Z,10.50
2024-03-06T12:02:08.444Z,10.56
2024-03-06T12:05:33.158Z,10.60
2024-03-06T12:08:53.877Z,10.60
2024-03-06T12:12:18.275Z,10.60
2024-03-06T12:14:58.967Z,10.60
2024-03-06T12:18:03.636Z,10.60
2024-03-06T12:20:47.149Z,10.58
2024-03-06T12:23:41.018Z,10.60
2024-03-06T12:26:28.687Z,10.60
2024-03-06T12:29:22.000Z,10.50
2024-03-06T12:32:21.586Z,10.60
2024-03-06T12:35:29.428Z,10.60
2024-03-06T12:38:20.376Z,10.60
2024-03-06T12:41:23.335Z,10.70
2024-03-06T12:44:04.473Z,10.60
2024-03-06T12:46:55.259Z,10.56
2024-03-06T12:49:33.782Z,10.56
2024-03-06T12:52:06.360Z,10.56
2024-03-06T12:55:08.102Z,10.60
2024-03-06T12:58:08.181Z,10.58
2024-03-06T13:00:41.415Z,10.60
2024-03-06T13:03:34.663Z,10.66
2024-03-06T13:06:06.022Z,10.70
2024-03-06T13:08:44.040Z,10.70
2024-03-06T13:11:11.706Z,10.60
2024-03-06T13:13:53.055Z,10.60
2024-03-06T13:16:45.595Z,10.60
2024-03-06T13:19:38.327Z,10.64
2024-03-06T13:22:16.319Z,10.60
2024-03-06T13:25:40.513Z,10.66
2024-03-06T13:28:17.626Z,10.68
2024-03-06T13:31:07.767Z,10.70
2024-03-06T13:34:05.120Z,10.70
2024-03-06T13:36:51.408Z,10.80
2024-03-06T13:39:18.596Z,10.80
2024-03-06T13:41:49.186Z,10.74
2024-03-06T13:44:22.708Z,10.70
2024-03-06T13:46:59.333Z,10.70
2024-03-06T13:49:43.066Z,10.70
2024-03-06T13:52:26.724Z,10.70
2024-03-06T13:54:57.004Z,10.80
2024-03-06T13:57:27.215Z,10.80
2024-03-06T13:59:54.668Z,10.90
2024-03-06T14:02:25.252Z,10.90
2024-03-06T14:04:58.649Z,10.94
2024-03-06T14:07:46.479Z,11.00
2024-03-06T14:10:15.069Z,10.90
2024-03-06T14:13:02.651Z,10.90
2024-03-06T14:15:30.331Z,10.90
2024-03-06T14:18:08.992Z,10.90
2024-03-06T14:20:36.818Z,10.90
2024-03-06T14:23:06.763Z,11.00
2024-03-06T14:25:39.596Z,11.00
2024-03-06T14:28:15.348Z,11.00
2024-03-06T14:30:43.509Z,11.00
2024-03-06T14:33:13.763Z,10.90
2024-03-06T14:35:43.981Z,10.90
2024-03-06T14:38:14.383Z,10.92
2024-03-06T14:40:42.625Z,11.00
2024-03-06T14:43:13.712Z,11.10
2024-03-06T14:45:43.916Z,11.10
2024-03-06T14:48:14.702Z,11.10
2024-03-06T14:50:45.378Z,11.06
2024-03-06T14:53:13.985Z,11.00
2024-03-06T14:55:50.258Z,10.90
2024-03-06T14:58:17.882Z,10.90
2024-03-06T15:00:45.255Z,11.00
2024-03-06T15:03:15.730Z,10.96
2024-03-06T15:05:43.413Z,10.92
2024-03-06T15:08:11.028Z,10.90
2024-03-06T15:10:38.807Z,10.80
2024-03-06T15:13:11.565Z,10.80
2024-03-06T15:15:39.154Z,10.80
2024-03-06T15:18:07.027Z,10.76
2024-03-06T15:20:34.831Z,10.74
2024-03-06T15:23:03.112Z,10.70
2024-03-06T15:25:36.960Z,10.70
2024-03-06T15:28:30.356Z,10.70
2024-03-06T15:31:00.978Z,10.70
2024-03-06T15:33:28.341Z,10.70
2024-03-06T15:36:17.398Z,10.70
2024-03-06T15:39:07.830Z,10.66
2024-03-06T15:41:35.568Z,10.66
2024-03-06T15:44:13.330Z,10.60
2024-03-06T15:46:42.036Z,10.50
2024-03-06T15:49:47.371Z,10.50
2024-03-06T15:52:15.367Z,10.50
2024-03-06T15:54:48.360Z,10.50
2024-03-06T15:57:19.590Z,10.50
2024-03-06T15:59:47.666Z,10.40
2024-03-06T16:02:15.464Z,10.40
2024-03-06T16:04:43.622Z,10.40
2024-03-06T16:07:17.061Z,10.40
2024-03-06T16:10:01.179Z,10.30
2024-03-06T16:12:33.877Z,10.30
2024-03-06T16:15:01.199Z,10.30
2024-03-06T16:17:28.822Z,10.30
2024-03-06T16:19:56.131Z,10.30
2024-03-06T16:22:25.866Z,10.30
2024-03-06T16:24:53.218Z,10.30
2024-03-06T16:27:31.106Z,10.26
2024-03-06T16:29:59.272Z,10.28
2024-03-06T16:32:26.665Z,10.20
2024-03-06T16:34:56.924Z,10.20
2024-03-06T16:37:24.379Z,10.20
2024-03-06T16:39:52.558Z,10.20
2024-03-06T16:42:22.992Z,10.20
2024-03-06T16:44:53.458Z,10.10
2024-03-06T16:47:31.834Z,10.10
2024-03-06T16:50:05.256Z,10.10
2024-03-06T16:52:39.454Z,10.10
2024-03-06T16:55:09.140Z,10.10
2024-03-06T16:57:38.514Z,10.10
2024-03-06T17:00:41.867Z,10.10
2024-03-06T17:03:25.243Z,10.10
2024-03-06T17:05:53.954Z,10.10
2024-03-06T17:08:23.280Z,10.10
2024-03-06T17:10:51.781Z,10.10
2024-03-06T17:13:20.384Z,10.10
2024-03-06T17:15:50.530Z,10.10
2024-03-06T17:18:27.991Z,10.10
2024-03-06T17:20:56.247Z,10.10
2024-03-06T17:23:28.620Z,10.10
2024-03-06T17:25:57.495Z,10.10
2024-03-06T17:28:25.776Z,10.10
2024-03-06T17:30:57.117Z,10.02
2024-03-06T17:33:34.781Z,10.00
2024-03-06T17:36:24.246Z,10.00
2024-03-06T17:39:27.987Z,10.00
2024-03-06T17:41:57.335Z,10.00
2024-03-06T17:44:30.800Z,10.00
2024-03-06T17:47:21.064Z,10.00
2024-03-06T17:49:49.467Z,10.00
2024-03-06T17:52:20.328Z,10.00
2024-03-06T17:55:13.813Z,10.00
2024-03-06T17:57:47.661Z,9.96
2024-03-06T18:00:45.514Z,9.90
2024-03-06T18:03:38.821Z,9.90
2024-03-06T18:06:09.601Z,9.90
2024-03-06T18:08:47.175Z,9.84
2024-03-06T18:11:22.787Z,9.80
2024-03-06T18:13:51.653Z,9.82
2024-03-06T18:16:23.326Z,9.82
2024-03-06T18:18:51.920Z,9.80
2024-03-06T18:21:20.648Z,9.80
2024-03-06T18:23:51.965Z,9.80
2024-03-06T18:26:21.035Z,9.80
2024-03-06T18:28:49.525Z,9.80
2024-03-06T18:31:25.909Z,9.80
2024-03-06T18:33:55.155Z,9.80
2024-03-06T18:36:23.761Z,9.80
2024-03-06T18:38:52.321Z,9.72
2024-03-06T18:41:31.030Z,9.78
2024-03-06T18:44:00.230Z,9.72
2024-03-06T18:46:38.975Z,9.70
2024-03-06T18:49:07.485Z,9.70
2024-03-06T18:51:36.264Z,9.70
2024-03-06T18:54:05.190Z,9.70
2024-03-06T18:56:37.938Z,9.70
2024-03-06T18:59:17.102Z,9.70
2024-03-06T19:01:49.501Z,9.64
2024-03-06T19:04:21.984Z,9.60
2024-03-06T19:06:50.412Z,9.60
2024-03-06T19:09:25.163Z,9.60
2024-03-06T19:11:59.142Z,9.52
2024-03-06T19:14:32.971Z,9.50
2024-03-06T19:17:01.390Z,9.50
2024-03-06T19:19:52.887Z,9.50
2024-03-06T19:22:21.350Z,9.40
2024-03-06T19:24:52.046Z,9.40
2024-03-06T19:27:28.267Z,9.40
2024-03-06T19:30:02.277Z,9.40
2024-03-06T19:32:39.422Z,9.40
2024-03-06T19:35:19.054Z,9.40
2024-03-06T19:37:51.002Z,9.40
2024-03-06T19:40:19.978Z,9.30
2024-03-06T19:42:48.474Z,9.34
2024-03-06T19:45:19.937Z,9.30
2024-03-06T19:47:48.272Z,9.30
2024-03-06T19:50:16.839Z,9.30
2024-03-06T19:52:51.028Z,9.22
2024-03-06T19:55:21.179Z,9.20
2024-03-06T19:57:50.010Z,9.20
2024-03-06T20:00:20.785Z,9.20
2024-03-06T20:02:52.998Z,9.18
2024-03-06T20:05:21.515Z,9.20
2024-03-06T20:07:49.730Z,9.20
2024-03-06T20:10:21.267Z,9.20
2024-03-06T20:12:52.220Z,9.20
2024-03-06T20:15:23.025Z,9.20
2024-03-06T20:17:51.560Z,9.20
2024-03-06T20:20:21.009Z,9.20
2024-03-06T20:22:49.653Z,9.20
2024-03-06T20:25:18.328Z,9.20
2024-03-06T20:27:46.384Z,9.20
2024-03-06T20:30:14.565Z,9.20
2024-03-06T20:32:48.954Z,9.20
2024-03-06T20:35:21.706Z,9.20
2024-03-06T20:38:00.426Z,9.20
2024-03-06T20:40:33.240Z,9.20
2024-03-06T20:43:51.977Z,9.20
2024-03-06T20:46:40.867Z,9.20
2024-03-06T20:49:22.701Z,9.20
2024-03-06T20:52:14.566Z,9.20
2024-03-06T20:55:23.479Z,9.20
2024-03-06T20:58:20.941Z,9.20
2024-03-06T21:01:12.764Z,9.20
2024-03-06T21:04:01.260Z,9.20
2024-03-06T21:06:32.596Z,9.20
2024-03-06T21:09:00.827Z,9.20
2024-03-06T21:11:29.193Z,9.20
2024-03-06T21:13:58.263Z,9.16
2024-03-06T21:16:26.618Z,9.18
2024-03-06T21:18:58.076Z,9.14
2024-03-06T21:21:26.332Z,9.10
2024-03-06T21:23:55.053Z,9.10
2024-03-06T21:26:26.519Z,9.10
2024-03-06T21:29:28.828Z,9.10
2024-03-06T21:32:23.714Z,9.10
2024-03-06T21:34:57.913Z,9.08
2024-03-06T21:37:49.213Z,9.06
2024-03-06T21:40:21.463Z,9.04
2024-03-06T21:42:53.376Z,9.00
2024-03-06T21:45:22.229Z,9.00
2024-03-06T21:47:51.294Z,9.00
2024-03-06T21:50:45.121Z,8.96
2024-03-06T21:53:18.921Z,8.90
2024-03-06T21:55:54.839Z,8.92
2024-03-06T21:59:03.707Z,8.98
2024-03-06T22:01:59.778Z,9.00
2024-03-06T22:05:11.804Z,9.00
2024-03-06T22:08:23.607Z,9.00
2024-03-06T22:11:02.086Z,9.00
2024-03-06T22:13:32.938Z,9.00
2024-03-06T22:16:00.977Z,9.00
2024-03-06T22:18:29.508Z,9.00
2024-03-06T22:20:58.428Z,9.00
2024-03-06T22:23:29.931Z,9.00
2024-03-06T22:25:58.323Z,9.00
2024-03-06T22:28:29.779Z,9.00
2024-03-06T22:30:58.317Z,9.00
2024-03-06T22:33:27.969Z,9.00
2024-03-06T22:35:57.064Z,9.00
2024-03-06T22:38:25.565Z,9.02
2024-03-06T22:41:34.495Z,9.02
2024-03-06T22:44:32.289Z,9.02
2024-03-06T22:48:21.652Z,9.10
2024-03-06T22:50:52.723Z,9.06
2024-03-06T22:53:39.804Z,9.02
2024-03-06T22:56:14.357Z,9.00
2024-03-06T22:59:39.745Z,9.00
2024-03-06T23:02:17.995Z,9.00
2024-03-06T23:05:19.585Z,9.00
2024-03-06T23:08:02.173Z,8.98
2024-03-06T23:10:36.895Z,8.96
2024-03-06T23:13:08.247Z,9.00
2024-03-06T23:16:05.952Z,9.00
2024-03-06T23:18:39.657Z,8.96
2024-03-06T23:21:14.303Z,9.00
2024-03-06T23:24:08.697Z,9.00
2024-03-06T23:26:41.260Z,9.00
2024-03-06T23:29:18.433Z,9.00
2024-03-06T23:32:08.682Z,9.00
2024-03-06T23:34:40.365Z,9.00
2024-03-06T23:37:20.163Z,9.00
2024-03-06T23:39:51.452Z,9.06
2024-03-06T23:42:33.393Z,9.00
2024-03-06T23:45:32.663Z,9.08
2024-03-06T23:48:04.886Z,9.02
2024-03-06T23:50:33.576Z,9.00
2024-03-06T23:53:20.684Z,9.00
2024-03-06T23:55:55.264Z,8.92
2024-03-06T23:58:24.395Z,8.90
